Time;durP1;ratioP1;P1;durP2;ratioP2;P2;SDS_P1;SDS_P2;PMS_P1;PMS_P2;Temp;Humidity;BMP_temperature;BMP_pressure;BME280_temperature;BME280_humidity;BME280_pressure;Samples;Min_cycle;Max_cycle;Signal;HPM_P1;HPM_P2
2024/02/09 00:00:25;;;;;;;2.95;1.10;;;17.80;62.40;;;;;;6254901;22;20181;-85
2024/02/09 00:02:52;;;;;;;2.65;1.20;;;17.70;62.20;;;;;;6280180;22;20140;-85
2024/02/09 00:05:17;;;;;;;2.85;1.10;;;17.70;62.10;;;;;;6254917;22;20218;-85
2024/02/09 00:10:20;;;;;;;2.25;1.10;;;17.70;62.10;;;;;;6307072;22;20538;-84
2024/02/09 00:12:48;;;;;;;2.15;1.30;;;17.70;62.80;;;;;;6230193;22;20151;-85
2024/02/09 00:15:14;;;;;;;2.38;1.33;;;17.70;62.50;;;;;;6275294;22;20277;-84
2024/02/09 00:17:39;;;;;;;2.03;1.13;;;17.70;62.70;;;;;;6229991;22;20160;-84
2024/02/09 00:20:09;;;;;;;2.15;0.90;;;17.60;62.90;;;;;;6280921;22;20132;-84
2024/02/09 00:22:35;;;;;;;2.15;1.27;;;17.50;62.90;;;;;;6230149;22;20231;-85
2024/02/09 00:25:04;;;;;;;2.25;1.20;;;17.60;62.90;;;;;;6282240;22;20602;-84
2024/02/09 00:27:31;;;;;;;4.15;1.40;;;17.60;62.60;;;;;;6233155;22;20147;-84
2024/02/09 00:29:57;;;;;;;1.55;1.20;;;17.60;63.00;;;;;;6256976;22;20177;-83
2024/02/09 00:32:22;;;;;;;2.53;1.20;;;17.60;63.00;;;;;;6282042;22;20129;-85
2024/02/09 00:34:49;;;;;;;2.28;1.30;;;17.60;62.60;;;;;;6230658;22;20172;-84
2024/02/09 00:37:15;;;;;;;5.35;1.60;;;17.60;62.90;;;;;;6255517;22;20140;-83
2024/02/09 00:39:42;;;;;;;1.30;1.00;;;17.70;62.60;;;;;;6280133;22;20148;-86
2024/02/09 00:42:11;;;;;;;1.42;1.00;;;17.60;62.60;;;;;;6253391;22;20542;-85
2024/02/09 00:44:38;;;;;;;1.55;1.10;;;17.60;63.00;;;;;;6232934;22;20234;-85
2024/02/09 00:47:04;;;;;;;2.40;1.38;;;17.60;62.90;;;;;;6256369;22;20139;-85
2024/02/09 00:49:32;;;;;;;3.60;1.20;;;17.50;62.90;;;;;;6257313;22;20144;-84
2024/02/09 00:52:00;;;;;;;1.80;1.20;;;17.50;62.80;;;;;;6256605;22;20140;-85
2024/02/09 00:56:53;;;;;;;4.32;1.35;;;17.50;62.80;;;;;;6308434;22;20203;-85
2024/02/09 00:59:28;;;;;;;1.60;1.20;;;17.50;62.80;;;;;;6231595;22;20219;-85
2024/02/09 01:01:57;;;;;;;2.38;1.35;;;17.50;62.60;;;;;;6256558;22;20144;-85
2024/02/09 01:04:23;;;;;;;3.05;1.50;;;17.50;62.90;;;;;;6257280;22;20181;-85
2024/02/09 01:06:49;;;;;;;3.45;1.50;;;17.50;62.90;;;;;;6230730;22;20223;-85
2024/02/09 01:09:15;;;;;;;1.85;1.08;;;17.50;62.90;;;;;;6255705;22;20137;-85
2024/02/09 01:11:41;;;;;;;2.75;1.20;;;17.50;62.60;;;;;;6230778;22;20141;-85
2024/02/09 02:46:56;;;;;;;2.00;1.45;;;17.30;62.20;;;;;;6229287;22;20155;-85
2024/02/09 03:05:24;;;;;;;1.52;1.30;;;17.20;62.90;;;;;;6261358;22;20224;-86
2024/02/09 03:07:52;;;;;;;2.28;1.15;;;17.30;62.00;;;;;;6255770;22;20121;-85
2024/02/09 03:10:19;;;;;;;1.98;1.50;;;17.30;61.80;;;;;;6229960;22;20178;-85
2024/02/09 03:12:46;;;;;;;3.00;1.42;;;17.30;61.90;;;;;;6255403;22;20132;-85
2024/02/09 03:15:11;;;;;;;1.58;1.15;;;17.30;61.70;;;;;;6280245;22;20191;-85
2024/02/09 03:17:38;;;;;;;1.75;1.20;;;17.40;61.80;;;;;;6229994;22;20151;-84
2024/02/09 03:20:05;;;;;;;1.40;1.10;;;17.30;61.80;;;;;;6231191;22;20144;-84
2024/02/09 03:22:32;;;;;;;3.40;1.20;;;17.30;61.50;;;;;;6231101;22;20231;-84
2024/02/09 03:25:01;;;;;;;2.47;1.20;;;17.30;61.90;;;;;;6280634;22;20220;-84
2024/02/09 03:27:31;;;;;;;1.60;1.20;;;17.30;61.80;;;;;;6231566;22;20231;-84
2024/02/09 03:29:59;;;;;;;2.50;1.20;;;17.30;61.90;;;;;;6280921;22;20131;-84
2024/02/09 03:32:26;;;;;;;1.95;1.02;;;17.30;61.70;;;;;;6255280;22;20140;-85
2024/02/09 03:34:53;;;;;;;2.25;1.30;;;17.30;61.60;;;;;;6255513;22;20175;-84
2024/02/09 03:37:20;;;;;;;2.55;1.40;;;17.30;61.80;;;;;;6254662;22;20150;-84
2024/02/09 03:39:46;;;;;;;1.83;1.20;;;17.30;61.60;;;;;;6280290;22;20150;-85
2024/02/09 03:42:12;;;;;;;1.80;1.13;;;17.20;61.90;;;;;;6229697;22;20633;-84
2024/02/09 03:44:38;;;;;;;3.03;1.27;;;17.20;61.50;;;;;;6254618;22;20148;-84
2024/02/09 03:47:04;;;;;;;1.67;1.17;;;17.20;61.30;;;;;;6307728;22;20128;-84
2024/02/09 03:49:30;;;;;;;1.77;1.20;;;17.30;61.60;;;;;;6253994;22;20203;-84
2024/02/09 03:51:56;;;;;;;1.75;1.17;;;17.30;61.30;;;;;;6279410;22;20213;-85
2024/02/09 03:54:21;;;;;;;1.80;1.33;;;17.30;61.40;;;;;;6280731;22;20233;-85
2024/02/09 03:56:47;;;;;;;1.25;1.10;;;17.30;61.20;;;;;;6231385;22;20148;-84
2024/02/09 03:59:15;;;;;;;2.10;1.48;;;17.30;61.50;;;;;;6256898;22;20159;-84
2024/02/09 04:01:41;;;;;;;2.35;1.30;;;17.30;61.40;;;;;;6282937;22;20128;-84
2024/02/09 04:04:07;;;;;;;1.75;1.30;;;17.30;61.20;;;;;;6256704;22;20666;-85
2024/02/09 04:06:33;;;;;;;2.10;1.08;;;17.30;61.30;;;;;;6226437;22;20668;-84
2024/02/09 04:08:59;;;;;;;1.65;1.20;;;17.30;61.50;;;;;;6220870;23;20142;-84
2024/02/09 04:11:28;;;;;;;2.33;1.20;;;17.20;61.20;;;;;;6246464;23;20134;-85
2024/02/09 04:13:54;;;;;;;1.50;1.10;;;17.20;61.40;;;;;;6245764;23;20122;-85
2024/02/09 04:16:20;;;;;;;1.88;1.40;;;17.30;61.50;;;;;;6246681;23;20196;-85
2024/02/09 04:18:47;;;;;;;1.73;1.25;;;17.20;61.50;;;;;;6246413;23;20149;-85
2024/02/09 04:23:51;;;;;;;1.63;1.17;;;17.20;61.30;;;;;;6308357;22;20214;-85
2024/02/09 04:26:17;;;;;;;1.83;1.40;;;17.30;61.50;;;;;;6282588;22;20143;-85
2024/02/09 04:28:43;;;;;;;2.08;1.33;;;17.20;61.10;;;;;;6256328;22;20132;-85
2024/02/09 04:31:09;;;;;;;1.65;1.40;;;17.20;61.20;;;;;;6256066;22;20218;-85
2024/02/09 04:33:36;;;;;;;1.40;1.30;;;17.20;61.30;;;;;;6309243;22;20129;-85
2024/02/09 04:36:02;;;;;;;1.85;1.27;;;17.20;61.30;;;;;;6256661;22;20595;-85
2024/02/09 04:38:28;;;;;;;1.98;1.23;;;17.20;61.30;;;;;;6256997;22;20228;-85
2024/02/09 04:40:55;;;;;;;1.65;1.10;;;17.20;61.60;;;;;;6256315;22;20144;-85
2024/02/09 04:43:22;;;;;;;2.08;1.42;;;17.10;61.40;;;;;;6282057;22;20238;-85
2024/02/09 04:45:48;;;;;;;2.55;1.20;;;17.20;61.00;;;;;;6254983;22;20172;-85
2024/02/09 04:48:14;;;;;;;3.60;1.50;;;17.20;61.20;;;;;;6280498;22;20216;-85
2024/02/09 04:50:41;;;;;;;1.75;1.20;;;17.20;61.20;;;;;;6254400;22;20143;-85
2024/02/09 04:53:07;;;;;;;1.60;1.30;;;17.20;61.20;;;;;;6255042;22;20586;-85
2024/02/09 04:55:36;;;;;;;1.70;1.13;;;17.20;60.80;;;;;;6280476;22;20168;-84
2024/02/09 04:58:06;;;;;;;1.50;1.23;;;17.20;60.90;;;;;;6177497;22;20178;-84
2024/02/09 05:00:33;;;;;;;1.88;1.20;;;17.20;61.00;;;;;;6279928;22;20190;-85
2024/02/09 05:03:00;;;;;;;1.90;1.20;;;17.20;61.20;;;;;;6229786;22;20152;-85
2024/02/09 05:05:30;;;;;;;1.20;1.10;;;17.20;61.10;;;;;;6230940;22;20201;-85
2024/02/09 05:07:56;;;;;;;1.52;1.17;;;17.20;61.00;;;;;;6254350;22;20510;-85
2024/02/09 05:10:22;;;;;;;1.50;1.30;;;17.10;61.20;;;;;;6254852;22;20129;-85
2024/02/09 05:12:48;;;;;;;2.88;1.15;;;17.20;61.20;;;;;;6254215;22;20140;-85
2024/02/09 05:15:16;;;;;;;1.30;1.20;;;17.10;61.40;;;;;;6279579;22;20690;-85
2024/02/09 05:17:46;;;;;;;1.20;1.10;;;17.10;60.80;;;;;;6254699;22;20144;-85
2024/02/09 05:20:13;;;;;;;2.28;1.30;;;17.20;60.90;;;;;;6202634;22;20195;-84
2024/02/09 05:22:39;;;;;;;1.70;1.20;;;17.20;60.80;;;;;;6224225;22;20204;-85
2024/02/09 05:25:06;;;;;;;2.25;1.30;;;17.10;60.50;;;;;;6223618;22;20183;-85
2024/02/09 05:27:32;;;;;;;2.78;1.20;;;17.10;60.30;;;;;;6275902;22;20136;-85
2024/02/09 05:29:58;;;;;;;1.83;1.33;;;17.10;61.00;;;;;;6224551;22;20133;-84
2024/02/09 05:32:24;;;;;;;1.80;1.20;;;17.10;60.80;;;;;;6223936;22;20141;-85
2024/02/09 05:34:51;;;;;;;1.95;1.35;;;17.10;61.10;;;;;;6222901;22;20169;-85
2024/02/09 05:37:17;;;;;;;1.60;1.30;;;17.10;60.80;;;;;;6248948;22;20152;-85
2024/02/09 05:39:45;;;;;;;1.15;0.98;;;17.10;61.10;;;;;;6248707;22;20137;-85
2024/02/09 05:42:11;;;;;;;2.58;1.30;;;17.10;60.60;;;;;;6249089;22;20182;-85
2024/02/09 05:44:36;;;;;;;2.05;1.30;;;17.20;60.90;;;;;;6277500;22;20199;-85
2024/02/09 05:47:04;;;;;;;1.30;1.20;;;17.10;60.60;;;;;;6306769;22;20139;-84
2024/02/09 05:49:32;;;;;;;1.67;1.20;;;17.10;60.40;;;;;;6202757;22;20148;-84
2024/02/09 05:51:59;;;;;;;2.22;1.38;;;17.10;60.20;;;;;;6247330;22;20199;-85
2024/02/09 05:54:25;;;;;;;1.92;1.23;;;17.10;60.70;;;;;;6254996;22;20178;-84
2024/02/09 05:56:51;;;;;;;2.65;1.10;;;17.00;60.70;;;;;;6255356;22;20219;-85
2024/02/09 05:59:17;;;;;;;2.13;1.38;;;17.10;60.70;;;;;;6254644;22;20136;-84
2024/02/09 06:01:45;;;;;;;1.55;1.35;;;17.20;60.40;;;;;;6280346;22;20148;-84
2024/02/09 06:04:11;;;;;;;1.80;1.20;;;17.10;60.60;;;;;;6255492;22;20121;-84
2024/02/09 06:06:43;;;;;;;2.03;1.30;;;17.10;60.50;;;;;;6280587;22;20248;-85
2024/02/09 06:09:09;;;;;;;3.20;1.33;;;17.10;60.40;;;;;;6284218;22;20139;-84
2024/02/09 06:11:35;;;;;;;2.75;1.60;;;17.10;60.80;;;;;;6259385;22;20147;-84
2024/02/09 06:14:02;;;;;;;2.70;1.45;;;17.10;60.70;;;;;;6285519;22;20246;-84
2024/02/09 06:16:28;;;;;;;1.67;1.55;;;17.10;60.90;;;;;;6286492;22;20211;-85
2024/02/09 06:21:19;;;;;;;1.70;1.10;;;17.10;60.30;;;;;;6279290;22;20649;-85
2024/02/09 06:23:45;;;;;;;2.33;1.25;;;17.10;60.30;;;;;;6280800;22;20207;-85
2024/02/09 06:26:14;;;;;;;1.55;1.00;;;17.10;60.30;;;;;;6255330;22;20151;-85
2024/02/09 06:28:40;;;;;;;1.60;1.20;;;17.10;60.20;;;;;;6254470;22;20155;-84
2024/02/09 06:31:06;;;;;;;1.60;1.20;;;17.10;60.30;;;;;;6255558;22;20144;-84
2024/02/09 06:33:32;;;;;;;1.65;1.40;;;17.10;60.40;;;;;;6281002;22;20144;-84
2024/02/09 06:35:58;;;;;;;2.13;1.20;;;17.10;60.30;;;;;;6280930;22;20186;-85
2024/02/09 06:38:24;;;;;;;1.67;1.25;;;17.10;60.30;;;;;;6281180;22;20124;-85
2024/02/09 06:40:53;;;;;;;2.17;1.48;;;17.10;60.10;;;;;;6307685;22;20258;-85
2024/02/09 06:43:19;;;;;;;2.30;1.60;;;17.10;60.30;;;;;;6254353;22;20144;-85
2024/02/09 06:45:45;;;;;;;1.75;1.42;;;17.10;60.10;;;;;;6255199;22;20230;-85
2024/02/09 06:48:11;;;;;;;1.23;1.13;;;17.10;60.00;;;;;;6255115;22;20578;-85
2024/02/09 06:50:37;;;;;;;1.60;1.35;;;17.10;60.10;;;;;;6255092;22;20475;-85
2024/02/09 06:53:06;;;;;;;1.25;1.10;;;17.10;59.80;;;;;;6279957;22;20139;-85
2024/02/09 06:55:36;;;;;;;2.38;1.40;;;17.10;59.90;;;;;;6253811;22;20193;-84
2024/02/09 06:58:03;;;;;;;1.85;1.38;;;17.00;60.00;;;;;;6280129;22;20559;-85
2024/02/09 07:00:30;;;;;;;1.52;1.20;;;17.00;60.20;;;;;;6279719;22;20176;-85
2024/02/09 07:02:58;;;;;;;2.17;1.45;;;17.10;60.10;;;;;;6254559;22;20163;-84
2024/02/09 07:05:24;;;;;;;2.13;1.30;;;17.00;59.90;;;;;;6280256;22;20128;-84
2024/02/09 07:07:50;;;;;;;1.67;1.38;;;17.10;59.60;;;;;;6280055;22;20186;-85
2024/02/09 07:10:17;;;;;;;1.48;1.20;;;17.10;59.80;;;;;;6257192;22;20140;-84
2024/02/09 07:12:44;;;;;;;2.22;1.40;;;17.10;59.10;;;;;;6280689;22;20148;-85
2024/02/09 07:15:10;;;;;;;1.58;1.20;;;17.10;59.40;;;;;;6280757;22;20168;-85
2024/02/09 07:17:36;;;;;;;1.80;1.38;;;17.20;59.50;;;;;;6281043;22;20615;-85
2024/02/09 07:20:03;;;;;;;1.67;1.38;;;17.20;59.50;;;;;;6280885;22;20128;-85
2024/02/09 07:22:31;;;;;;;2.08;1.10;;;17.20;59.70;;;;;;6280710;22;20132;-84
2024/02/09 07:24:57;;;;;;;2.13;1.27;;;17.10;59.20;;;;;;6255644;22;20136;-85
2024/02/09 07:27:23;;;;;;;1.38;1.20;;;17.20;59.20;;;;;;6229655;22;20155;-85
2024/02/09 07:29:49;;;;;;;1.88;1.35;;;17.10;59.50;;;;;;6280677;22;20150;-85
2024/02/09 07:32:15;;;;;;;1.80;1.40;;;17.20;58.50;;;;;;6281055;22;20259;-85
2024/02/09 07:34:42;;;;;;;2.40;1.30;;;17.20;58.90;;;;;;6280455;22;20163;-85
2024/02/09 07:37:11;;;;;;;1.83;1.20;;;17.20;59.40;;;;;;6204089;22;20155;-85
2024/02/09 07:39:37;;;;;;;1.35;1.10;;;17.20;59.40;;;;;;6229553;22;20171;-85
2024/02/09 07:42:04;;;;;;;1.95;1.23;;;17.20;59.60;;;;;;6255322;22;20321;-85
2024/02/09 07:44:33;;;;;;;1.05;1.00;;;17.10;59.00;;;;;;6203245;22;20171;-85
2024/02/09 07:47:04;;;;;;;2.25;1.30;;;17.20;59.40;;;;;;6204038;22;20155;-85
2024/02/09 07:49:31;;;;;;;2.45;1.30;;;17.30;59.10;;;;;;6206874;22;20205;-85
2024/02/09 07:51:59;;;;;;;1.92;1.27;;;17.20;58.80;;;;;;6178971;22;20151;-85
2024/02/09 07:54:26;;;;;;;1.27;1.17;;;17.20;59.30;;;;;;6178969;22;20182;-85
2024/02/09 07:56:53;;;;;;;1.58;1.13;;;17.20;59.20;;;;;;6255182;22;20136;-85
2024/02/09 07:59:20;;;;;;;1.27;1.17;;;17.20;58.90;;;;;;6280596;22;20139;-85
2024/02/09 08:01:47;;;;;;;1.23;1.08;;;17.20;59.30;;;;;;6254878;22;20155;-85
2024/02/09 08:04:13;;;;;;;1.83;1.15;;;17.30;58.50;;;;;;6254854;22;20141;-85
2024/02/09 08:06:39;;;;;;;2.30;1.40;;;17.20;58.70;;;;;;6254803;22;20650;-85
2024/02/09 08:09:05;;;;;;;2.70;1.10;;;17.20;59.30;;;;;;6280135;22;20552;-84
2024/02/09 08:11:31;;;;;;;1.50;0.98;;;17.10;59.10;;;;;;6255174;22;20148;-84
2024/02/09 08:14:00;;;;;;;1.60;1.10;;;17.20;59.20;;;;;;6280338;22;20624;-84
2024/02/09 08:16:26;;;;;;;1.20;1.10;;;17.20;58.50;;;;;;6281524;22;20603;-85
2024/02/09 08:18:53;;;;;;;1.10;0.98;;;17.30;58.70;;;;;;6280379;22;20128;-85
2024/02/09 08:21:19;;;;;;;1.48;1.10;;;17.20;58.50;;;;;;6280677;22;20187;-85
2024/02/09 08:23:44;;;;;;;2.25;1.30;;;17.20;58.80;;;;;;6254819;22;20180;-84
2024/02/09 08:26:10;;;;;;;2.15;1.02;;;17.20;58.40;;;;;;6280365;22;20174;-84
2024/02/09 08:28:43;;;;;;;1.45;1.10;;;17.30;58.60;;;;;;6281381;22;20144;-84
2024/02/09 08:31:14;;;;;;;2.53;1.17;;;17.20;58.30;;;;;;6257026;22;20170;-84
2024/02/09 08:33:43;;;;;;;1.48;1.23;;;17.30;58.70;;;;;;6256035;22;20575;-84
2024/02/09 08:36:16;;;;;;;1.25;1.15;;;17.20;58.50;;;;;;6255434;22;20187;-85
2024/02/09 08:38:47;;;;;;;2.05;1.42;;;17.20;58.50;;;;;;6206550;22;20207;-84
2024/02/09 08:41:13;;;;;;;1.40;1.27;;;17.30;58.70;;;;;;6229578;22;20171;-85
2024/02/09 08:43:42;;;;;;;1.45;1.27;;;17.30;58.50;;;;;;6282373;22;20466;-85
2024/02/09 08:46:08;;;;;;;1.45;1.30;;;17.30;57.90;;;;;;6205150;22;20152;-85
2024/02/09 08:48:34;;;;;;;1.45;1.10;;;17.30;58.50;;;;;;6258720;22;20144;-85
2024/02/09 08:51:00;;;;;;;3.70;1.38;;;17.30;58.50;;;;;;6258283;22;20148;-85
2024/02/09 08:53:26;;;;;;;1.58;1.15;;;17.30;58.00;;;;;;6284896;22;20493;-85
2024/02/09 08:55:52;;;;;;;1.23;1.02;;;17.30;58.60;;;;;;6283164;22;20180;-85
2024/02/09 08:58:20;;;;;;;1.02;0.93;;;17.30;58.80;;;;;;6283765;22;20140;-84
2024/02/09 09:00:46;;;;;;;1.25;1.15;;;17.30;58.20;;;;;;6283408;22;20141;-85
2024/02/09 09:03:13;;;;;;;1.38;1.27;;;17.30;58.60;;;;;;6283822;22;20151;-85
2024/02/09 09:05:40;;;;;;;1.67;1.02;;;17.20;58.80;;;;;;6286854;22;20151;-84
2024/02/09 09:08:08;;;;;;;1.30;1.13;;;17.30;58.20;;;;;;6284240;22;20144;-85
2024/02/09 09:10:38;;;;;;;2.40;1.10;;;17.30;58.50;;;;;;6285400;22;20163;-85
2024/02/09 09:13:10;;;;;;;1.33;1.05;;;17.30;58.20;;;;;;6285613;22;20124;-85
2024/02/09 09:15:37;;;;;;;1.45;1.20;;;17.30;57.50;;;;;;6260281;22;20190;-85
2024/02/09 09:18:03;;;;;;;1.63;1.10;;;17.40;57.80;;;;;;6309856;22;20137;-85
2024/02/09 09:20:29;;;;;;;2.03;1.23;;;17.40;58.10;;;;;;6255425;22;20194;-85
2024/02/09 09:22:58;;;;;;;1.58;1.27;;;17.40;57.70;;;;;;6281288;22;20129;-86
2024/02/09 09:25:24;;;;;;;1.83;1.30;;;17.30;58.00;;;;;;6283156;22;20147;-85
2024/02/09 09:27:50;;;;;;;1.52;1.15;;;17.40;58.50;;;;;;6281739;22;20442;-86
2024/02/09 09:30:17;;;;;;;1.40;1.13;;;17.30;58.30;;;;;;6281896;22;20587;-85
2024/02/09 09:32:43;;;;;;;1.60;1.23;;;17.30;58.50;;;;;;6283761;22;20569;-85
2024/02/09 09:35:08;;;;;;;1.83;1.38;;;17.40;58.10;;;;;;6281617;22;20164;-85
2024/02/09 09:37:36;;;;;;;1.38;1.10;;;17.40;58.10;;;;;;6282477;22;20144;-85
2024/02/09 09:40:03;;;;;;;1.63;1.25;;;17.40;57.80;;;;;;6282399;22;20645;-85
2024/02/09 09:42:29;;;;;;;2.47;1.10;;;17.40;58.00;;;;;;6282598;22;20151;-85
2024/02/09 09:44:55;;;;;;;1.88;1.20;;;17.40;57.80;;;;;;6282406;22;20156;-85
2024/02/09 09:47:22;;;;;;;2.13;1.25;;;17.40;57.80;;;;;;6281627;22;20152;-85
2024/02/09 09:49:48;;;;;;;1.23;1.05;;;17.40;57.60;;;;;;6281918;22;20140;-85
2024/02/09 09:52:19;;;;;;;1.48;1.00;;;17.40;57.80;;;;;;6256200;22;20914;-84
2024/02/09 09:54:48;;;;;;;1.10;0.98;;;17.40;57.70;;;;;;6282175;22;20247;-85
2024/02/09 09:57:14;;;;;;;1.52;1.20;;;17.50;57.70;;;;;;6283636;22;20128;-86
2024/02/09 09:59:40;;;;;;;1.25;1.10;;;17.50;57.50;;;;;;6283047;22;20563;-85
2024/02/09 10:02:07;;;;;;;3.15;1.20;;;17.50;57.70;;;;;;6282314;22;20177;-84
2024/02/09 10:04:39;;;;;;;4.38;1.30;;;17.50;57.40;;;;;;6256646;22;20144;-84
2024/02/09 10:07:15;;;;;;;1.05;0.95;;;17.50;57.30;;;;;;6205530;22;20151;-84
2024/02/09 10:09:41;;;;;;;1.25;1.00;;;17.50;57.00;;;;;;6183191;22;20234;-85
2024/02/09 10:12:09;;;;;;;1.58;1.17;;;17.50;57.30;;;;;;6282454;22;20144;-85
2024/02/09 10:14:48;;;;;;;1.27;1.02;;;17.50;57.30;;;;;;6283380;22;20167;-85
2024/02/09 10:17:13;;;;;;;1.20;1.10;;;17.50;57.40;;;;;;6232492;22;20194;-84
2024/02/09 10:19:39;;;;;;;1.40;1.02;;;17.60;56.90;;;;;;6284995;22;20136;-85
2024/02/09 10:22:05;;;;;;;2.20;1.00;;;17.60;57.40;;;;;;6281094;22;20195;-84
2024/02/09 10:24:32;;;;;;;3.15;1.20;;;17.50;57.30;;;;;;6256404;22;20483;-84
2024/02/09 10:26:57;;;;;;;1.65;1.05;;;17.50;57.00;;;;;;6281136;22;20156;-84
2024/02/09 10:29:25;;;;;;;1.42;1.05;;;17.60;56.80;;;;;;6281175;22;20531;-83
2024/02/09 10:31:53;;;;;;;1.48;1.20;;;17.60;58.10;;;;;;6281564;22;20147;-85
2024/02/09 10:34:19;;;;;;;1.48;1.23;;;17.60;57.20;;;;;;6282423;22;20120;-84
2024/02/09 10:36:49;;;;;;;1.83;1.10;;;17.60;57.00;;;;;;6282605;22;20139;-83
2024/02/09 10:39:17;;;;;;;1.10;1.00;;;17.60;57.00;;;;;;6207172;22;20147;-82
2024/02/09 10:41:48;;;;;;;1.00;0.80;;;17.60;57.10;;;;;;6283225;22;20147;-83
2024/02/09 10:44:17;;;;;;;1.23;1.10;;;17.60;57.10;;;;;;6234154;22;20170;-83
2024/02/09 10:46:47;;;;;;;1.40;1.20;;;17.60;56.90;;;;;;6205637;22;20883;-83
2024/02/09 10:49:13;;;;;;;1.38;1.08;;;17.60;56.80;;;;;;6256753;22;20651;-83
2024/02/09 10:51:43;;;;;;;4.28;1.20;;;17.60;56.90;;;;;;6284265;22;20128;-84
2024/02/09 10:54:37;;;;;;;1.08;0.95;;;17.60;57.00;;;;;;6232427;22;20483;-84
2024/02/09 10:57:05;;;;;;;2.13;1.20;;;17.50;56.40;;;;;;6309727;22;20164;-85
2024/02/09 10:59:36;;;;;;;1.30;1.20;;;17.60;56.60;;;;;;6281395;22;20508;-85
2024/02/09 11:02:04;;;;;;;2.53;1.25;;;17.70;56.70;;;;;;6281307;22;20482;-83
2024/02/09 11:04:32;;;;;;;2.33;1.00;;;17.60;56.70;;;;;;6255931;22;20155;-84
2024/02/09 11:06:57;;;;;;;1.42;1.02;;;17.70;56.50;;;;;;6281760;22;20148;-84
2024/02/09 11:09:24;;;;;;;2.67;1.20;;;17.70;56.60;;;;;;6310083;22;20179;-84
2024/02/09 11:11:50;;;;;;;2.55;1.17;;;17.70;56.80;;;;;;6205294;22;20194;-84
2024/02/09 11:14:17;;;;;;;2.85;0.98;;;17.70;56.90;;;;;;6256797;22;20147;-84
2024/02/09 11:16:45;;;;;;;1.20;1.08;;;17.60;57.10;;;;;;6256855;22;20464;-83
2024/02/09 11:19:14;;;;;;;1.98;1.27;;;17.60;56.70;;;;;;6281494;22;20132;-84
2024/02/09 11:21:48;;;;;;;1.35;1.15;;;17.60;56.10;;;;;;6256016;22;20196;-83
2024/02/09 11:24:16;;;;;;;2.05;1.33;;;17.70;56.10;;;;;;6281184;22;20567;-84
2024/02/09 11:26:46;;;;;;;2.13;1.20;;;17.70;56.90;;;;;;6282898;22;20211;-83
2024/02/09 11:29:13;;;;;;;1.23;1.10;;;17.70;56.70;;;;;;6256758;22;20240;-84
2024/02/09 11:31:41;;;;;;;3.67;1.05;;;17.60;56.50;;;;;;6281671;22;20628;-84
2024/02/09 11:34:07;;;;;;;2.25;1.38;;;17.70;56.70;;;;;;6281852;22;20194;-84
2024/02/09 11:36:34;;;;;;;1.73;1.20;;;17.60;56.60;;;;;;6256764;22;20175;-84
2024/02/09 11:39:01;;;;;;;1.27;0.95;;;17.60;56.70;;;;;;6281221;22;20141;-85
2024/02/09 11:41:28;;;;;;;1.83;1.17;;;17.60;56.60;;;;;;6282484;22;20144;-85
2024/02/09 11:44:02;;;;;;;1.30;1.20;;;17.70;56.60;;;;;;6256215;22;20179;-86
2024/02/09 11:46:28;;;;;;;1.20;1.10;;;17.70;56.70;;;;;;6282059;22;20134;-85
2024/02/09 11:48:55;;;;;;;2.47;1.10;;;17.70;56.60;;;;;;6255869;22;20136;-86
2024/02/09 11:51:21;;;;;;;1.60;1.20;;;17.70;56.50;;;;;;6283360;22;20144;-86
2024/02/09 11:53:50;;;;;;;1.83;1.20;;;17.70;56.70;;;;;;6282044;22;20433;-85
2024/02/09 11:56:17;;;;;;;1.35;1.17;;;17.60;57.10;;;;;;6283243;22;20176;-86
2024/02/09 11:58:44;;;;;;;2.05;1.10;;;17.70;55.90;;;;;;6286988;22;20203;-86
2024/02/09 12:01:43;;;;;;;1.20;0.90;;;17.70;55.70;;;;;;6262100;22;20148;-86
2024/02/09 12:04:28;;;;;;;1.67;1.40;;;17.80;56.60;;;;;;6287960;22;20155;-85
2024/02/09 12:07:19;;;;;;;;;;;;;;;;;;;;;
2024/02/09 12:09:49;;;;;;;1.35;1.15;;;17.80;55.10;;;;;;6281340;22;20172;-83
2024/02/09 12:12:25;;;;;;;;;;;;;;;;;;;;;
2024/02/09 12:14:53;;;;;;;2.30;1.10;;;17.90;53.90;;;;;;6270352;22;20199;-82
2024/02/09 12:17:20;;;;;;;3.60;1.30;;;17.90;55.40;;;;;;6261536;22;20155;-84
2024/02/09 12:20:06;;;;;;;1.95;1.48;;;17.90;55.80;;;;;;6287948;22;20148;-84
2024/02/09 12:22:34;;;;;;;5.57;2.10;;;17.90;55.40;;;;;;6250213;23;20496;-83
2024/02/09 12:25:05;;;;;;;4.10;1.65;;;17.90;56.40;;;;;;6222548;23;20150;-83
2024/02/09 12:27:35;;;;;;;1.88;1.38;;;17.90;55.60;;;;;;6197769;23;20208;-84
2024/02/09 12:30:21;;;;;;;2.33;1.35;;;17.90;55.80;;;;;;6222624;23;20138;-83
2024/02/09 12:33:15;;;;;;;;;;;;;;;;;;;;;
2024/02/09 12:35:44;;;;;;;5.80;1.60;;;17.90;55.80;;;;;;6116697;23;20276;-84
2024/02/09 12:38:14;;;;;;;4.40;1.58;;;17.90;56.80;;;;;;6195198;23;20535;-84
2024/02/09 12:40:43;;;;;;;4.70;1.65;;;17.90;56.70;;;;;;6222020;23;20155;-85
2024/02/09 12:43:12;;;;;;;3.53;1.70;;;17.80;58.00;;;;;;6195653;23;20147;-84
2024/02/09 12:45:38;;;;;;;4.00;1.83;;;17.70;58.50;;;;;;6222044;23;20137;-85
2024/02/09 12:48:05;;;;;;;3.75;1.90;;;17.70;58.00;;;;;;6221202;23;20156;-84
2024/02/09 12:50:31;;;;;;;2.33;1.40;;;17.70;59.60;;;;;;6197148;23;20205;-86
2024/02/09 12:52:57;;;;;;;4.43;1.50;;;17.60;59.50;;;;;;6236939;22;20144;-84
2024/02/09 12:55:27;;;;;;;2.42;1.55;;;17.60;59.70;;;;;;6258992;22;20202;-84
2024/02/09 12:57:54;;;;;;;2.97;1.30;;;17.60;58.40;;;;;;6284841;22;20178;-85
2024/02/09 13:00:23;;;;;;;3.70;1.35;;;17.60;59.50;;;;;;6258825;22;20562;-84
2024/02/09 13:02:49;;;;;;;1.75;1.48;;;17.60;59.20;;;;;;6284126;22;20129;-85
2024/02/09 13:05:15;;;;;;;1.40;1.13;;;17.60;59.00;;;;;;6284558;22;20159;-85
2024/02/09 13:07:40;;;;;;;2.35;1.60;;;17.60;58.80;;;;;;6283355;22;20136;-85
2024/02/09 13:10:10;;;;;;;3.92;1.42;;;17.60;60.40;;;;;;6259380;22;20689;-85
2024/02/09 13:12:37;;;;;;;2.75;1.45;;;17.60;59.70;;;;;;6258676;22;20186;-85
2024/02/09 13:15:07;;;;;;;3.05;1.30;;;17.50;60.20;;;;;;6257014;22;20254;-85
2024/02/09 13:17:37;;;;;;;3.58;1.83;;;17.60;59.60;;;;;;6282812;22;20145;-85
2024/02/09 13:20:08;;;;;;;2.22;1.50;;;17.60;60.80;;;;;;6206157;22;20563;-85
2024/02/09 13:22:37;;;;;;;2.83;1.50;;;17.60;59.10;;;;;;6259250;22;20152;-85
2024/02/09 13:25:04;;;;;;;4.63;1.40;;;17.60;58.50;;;;;;6206107;22;20499;-84
2024/02/09 13:27:32;;;;;;;2.33;1.33;;;17.60;61.00;;;;;;6281540;22;20129;-86
2024/02/09 13:30:30;;;;;;;2.55;1.20;;;17.60;61.70;;;;;;6195124;23;20156;-85
2024/02/09 13:32:56;;;;;;;4.80;1.73;;;17.60;60.80;;;;;;6204201;23;20593;-85
2024/02/09 13:35:22;;;;;;;5.05;1.92;;;17.60;61.40;;;;;;6195882;23;20187;-84
2024/02/09 13:37:49;;;;;;;1.95;1.20;;;17.60;61.10;;;;;;6172241;23;20551;-85
2024/02/09 13:40:15;;;;;;;2.15;1.50;;;17.60;59.10;;;;;;6196543;23;20137;-85
2024/02/09 13:42:47;;;;;;;6.57;1.80;;;17.60;59.20;;;;;;6221602;23;20212;-85
2024/02/09 13:45:14;;;;;;;6.53;1.60;;;17.70;59.70;;;;;;6194740;23;20149;-85
2024/02/09 13:47:40;;;;;;;7.43;1.48;;;17.60;60.00;;;;;;6169859;23;20601;-84
2024/02/09 13:50:11;;;;;;;6.55;1.75;;;17.60;59.40;;;;;;6194937;23;20152;-85
2024/02/09 13:52:37;;;;;;;5.97;1.70;;;17.60;59.50;;;;;;6221930;23;20133;-84
2024/02/09 13:55:04;;;;;;;6.47;1.70;;;17.60;60.10;;;;;;6196123;23;20228;-84
2024/02/09 13:57:29;;;;;;;3.65;1.70;;;17.60;60.40;;;;;;6198583;23;20153;-85
2024/02/09 13:59:57;;;;;;;5.85;1.63;;;17.60;59.70;;;;;;6245588;23;20166;-85
2024/02/09 14:02:23;;;;;;;4.47;1.67;;;17.70;59.80;;;;;;6196185;23;20145;-85
2024/02/09 14:04:48;;;;;;;2.67;1.70;;;17.60;60.20;;;;;;6195012;23;20168;-86
2024/02/09 14:07:14;;;;;;;3.72;1.55;;;17.60;60.40;;;;;;6194085;23;20153;-85
2024/02/09 14:09:42;;;;;;;3.63;1.63;;;17.70;60.70;;;;;;6218916;23;20217;-84
2024/02/09 14:12:15;;;;;;;2.83;1.20;;;17.60;60.10;;;;;;6194198;23;20608;-84
2024/02/09 14:14:41;;;;;;;2.05;1.30;;;17.60;60.40;;;;;;6193300;23;20211;-85
2024/02/09 14:17:07;;;;;;;2.15;1.40;;;17.60;59.30;;;;;;6167353;23;20311;-84
2024/02/09 14:19:33;;;;;;;4.70;1.70;;;17.60;59.70;;;;;;6167908;23;20487;-85
2024/02/09 14:21:59;;;;;;;7.30;1.88;;;17.70;60.20;;;;;;6192914;23;20192;-85
2024/02/09 14:24:24;;;;;;;2.13;1.50;;;17.70;59.30;;;;;;6169426;23;20233;-84
2024/02/09 14:26:50;;;;;;;3.03;1.50;;;17.60;59.70;;;;;;6185439;22;20513;-85
2024/02/09 14:29:16;;;;;;;2.85;1.30;;;17.60;59.60;;;;;;6224332;22;20126;-85
2024/02/09 14:31:43;;;;;;;3.10;1.38;;;17.60;59.80;;;;;;6224334;22;20232;-86
2024/02/09 14:34:09;;;;;;;5.07;1.50;;;17.60;59.10;;;;;;6199525;22;20136;-85
2024/02/09 14:36:35;;;;;;;2.28;1.20;;;17.70;59.40;;;;;;6224902;22;20192;-84
2024/02/09 14:39:01;;;;;;;7.28;2.08;;;17.70;59.50;;;;;;6201032;22;20167;-86
2024/02/09 14:41:26;;;;;;;6.07;1.52;;;17.70;59.70;;;;;;6250796;22;20219;-85
2024/02/09 14:43:53;;;;;;;4.32;1.55;;;17.70;59.50;;;;;;6251776;22;20157;-85
2024/02/09 14:46:19;;;;;;;7.53;1.60;;;17.70;58.80;;;;;;6277926;22;20140;-86
2024/02/09 14:48:45;;;;;;;7.20;1.80;;;17.70;59.20;;;;;;6250640;22;20125;-84
2024/02/09 14:51:11;;;;;;;5.05;1.77;;;17.70;60.00;;;;;;6225677;22;20156;-85